DLH861 LTFJ-LSZH
Flight info
| Callsign | DLH861 |
|---|---|
| Flight time | N/A |
| Altitude | 40000 |
| Route | LTFJ/06L N0485F400 VADE3L VADEN DCT BAKLO DCT ROVAM DCT DOLAP DCT SOMUN DCT PODET DCT KLAGY DCT KFT DCT ERKIR DCT KPT L856 NEGRA NEGR2A LSZH/14 |
| Aircraft | A388/J-V/N |
Departure
| Time | N/A |
|---|---|
| Airport | Istanbul Sabiha Gökçen International Airport (LTFJ) |
Arrival
| Time | 2026-04-30 22:39 |
|---|---|
| Airport | Zürich Airport (LSZH) |
| Time | Latitude | Longitude | Altitude | Speed | Heading |
|---|---|---|---|---|---|
| 2026-04-30 21:16 | 43.90788 | 20.89330 | 40326 ft | 467 kts | 301° |
| 2026-04-30 21:16 | 43.92484 | 20.85470 | 40325 ft | 467 kts | 301° |
| 2026-04-30 21:17 | 43.95780 | 20.77778 | 40324 ft | 467 kts | 300° |
| 2026-04-30 21:17 | 43.99001 | 20.69944 | 40307 ft | 467 kts | 298° |
| 2026-04-30 21:18 | 44.02074 | 20.61974 | 40311 ft | 467 kts | 298° |
| 2026-04-30 21:18 | 44.05157 | 20.54015 | 40311 ft | 468 kts | 298° |
| 2026-04-30 21:19 | 44.07728 | 20.47399 | 40307 ft | 468 kts | 298° |
| 2026-04-30 21:19 | 44.10822 | 20.39427 | 40306 ft | 469 kts | 298° |
| 2026-04-30 21:20 | 44.13919 | 20.31426 | 40303 ft | 469 kts | 298° |
| 2026-04-30 21:20 | 44.17014 | 20.23404 | 40310 ft | 469 kts | 298° |
| 2026-04-30 21:21 | 44.20081 | 20.15434 | 40319 ft | 469 kts | 298° |
| 2026-04-30 21:22 | 44.24695 | 20.03398 | 40334 ft | 469 kts | 298° |
| 2026-04-30 21:23 | 44.30829 | 19.87316 | 40335 ft | 468 kts | 298° |
| 2026-04-30 21:23 | 44.35394 | 19.75290 | 40318 ft | 468 kts | 298° |
| 2026-04-30 21:24 | 44.38438 | 19.67242 | 40315 ft | 468 kts | 298° |
| 2026-04-30 21:24 | 44.41474 | 19.59191 | 40318 ft | 468 kts | 298° |
| 2026-04-30 21:25 | 44.46025 | 19.47077 | 40333 ft | 468 kts | 298° |
| 2026-04-30 21:26 | 44.50542 | 19.35001 | 40336 ft | 469 kts | 298° |
| 2026-04-30 21:27 | 44.55072 | 19.22838 | 40338 ft | 469 kts | 298° |
| 2026-04-30 21:27 | 44.58085 | 19.14717 | 40343 ft | 469 kts | 298° |
| 2026-04-30 21:28 | 44.63215 | 19.03080 | 40347 ft | 468 kts | 305° |
| 2026-04-30 21:29 | 44.68675 | 18.91667 | 40345 ft | 469 kts | 304° |
| 2026-04-30 21:30 | 44.77741 | 18.72636 | 40355 ft | 469 kts | 304° |
| 2026-04-30 21:31 | 44.86781 | 18.53532 | 40358 ft | 470 kts | 304° |
| 2026-04-30 21:32 | 44.92204 | 18.42008 | 40362 ft | 470 kts | 304° |
| 2026-04-30 21:32 | 44.95815 | 18.34311 | 40359 ft | 470 kts | 304° |
| 2026-04-30 21:33 | 45.01232 | 18.22723 | 40351 ft | 471 kts | 304° |
| 2026-04-30 21:34 | 45.04809 | 18.15046 | 40360 ft | 471 kts | 304° |
| 2026-04-30 21:34 | 45.10204 | 18.03426 | 40368 ft | 471 kts | 304° |
| 2026-04-30 21:35 | 45.13799 | 17.95658 | 40368 ft | 471 kts | 304° |
| 2026-04-30 21:35 | 45.17393 | 17.87870 | 40370 ft | 472 kts | 304° |
| 2026-04-30 21:36 | 45.20978 | 17.80080 | 40370 ft | 472 kts | 304° |
| 2026-04-30 21:37 | 45.28140 | 17.64456 | 40371 ft | 472 kts | 304° |
| 2026-04-30 21:37 | 45.31008 | 17.58174 | 40376 ft | 473 kts | 304° |
| 2026-04-30 21:38 | 45.34545 | 17.50409 | 40376 ft | 473 kts | 304° |
| 2026-04-30 21:38 | 45.38123 | 17.42530 | 40376 ft | 473 kts | 304° |
| 2026-04-30 21:39 | 45.41667 | 17.34706 | 40380 ft | 473 kts | 304° |
| 2026-04-30 21:39 | 45.45227 | 17.26825 | 40379 ft | 474 kts | 304° |
| 2026-04-30 21:40 | 45.48788 | 17.18920 | 40379 ft | 474 kts | 304° |
| 2026-04-30 21:40 | 45.52350 | 17.10989 | 40382 ft | 474 kts | 304° |
| 2026-04-30 21:41 | 45.55896 | 17.03073 | 40380 ft | 475 kts | 304° |
| 2026-04-30 21:41 | 45.59448 | 16.95123 | 40384 ft | 475 kts | 304° |
| 2026-04-30 21:42 | 45.62979 | 16.87195 | 40381 ft | 475 kts | 304° |
| 2026-04-30 21:42 | 45.66550 | 16.79156 | 40380 ft | 475 kts | 304° |
| 2026-04-30 21:43 | 45.70045 | 16.71266 | 40390 ft | 475 kts | 304° |
| 2026-04-30 21:43 | 45.73589 | 16.63239 | 40387 ft | 476 kts | 304° |
| 2026-04-30 21:44 | 45.77128 | 16.55202 | 40390 ft | 476 kts | 304° |
| 2026-04-30 21:44 | 45.80631 | 16.47224 | 40389 ft | 476 kts | 304° |
| 2026-04-30 21:45 | 45.84158 | 16.39168 | 40391 ft | 476 kts | 304° |
| 2026-04-30 21:45 | 45.87684 | 16.31095 | 40393 ft | 476 kts | 304° |
| 2026-04-30 21:46 | 45.91204 | 16.23009 | 40388 ft | 477 kts | 304° |
| 2026-04-30 21:46 | 45.94715 | 16.14921 | 40392 ft | 477 kts | 304° |
| 2026-04-30 21:47 | 45.98213 | 16.06840 | 40408 ft | 477 kts | 304° |
| 2026-04-30 21:47 | 46.01696 | 15.98768 | 40402 ft | 478 kts | 304° |
| 2026-04-30 21:48 | 46.05201 | 15.90625 | 40398 ft | 478 kts | 304° |
| 2026-04-30 21:48 | 46.08690 | 15.82493 | 40399 ft | 478 kts | 303° |
| 2026-04-30 21:49 | 46.12192 | 15.74308 | 40400 ft | 479 kts | 304° |
| 2026-04-30 21:49 | 46.15689 | 15.66124 | 40397 ft | 479 kts | 304° |
| 2026-04-30 21:50 | 46.19081 | 15.57817 | 40403 ft | 480 kts | 302° |
| 2026-04-30 21:50 | 46.22477 | 15.49540 | 40403 ft | 480 kts | 303° |
| 2026-04-30 21:51 | 46.25881 | 15.41230 | 40402 ft | 480 kts | 303° |
| 2026-04-30 21:51 | 46.29258 | 15.32909 | 40407 ft | 480 kts | 302° |
| 2026-04-30 21:52 | 46.32573 | 15.24700 | 40408 ft | 480 kts | 302° |
| 2026-04-30 21:52 | 46.33328 | 15.22827 | 40411 ft | 480 kts | 302° |
| 2026-04-30 21:53 | 46.36021 | 15.16139 | 40412 ft | 480 kts | 302° |
| 2026-04-30 21:53 | 46.39365 | 15.07807 | 40409 ft | 480 kts | 302° |
| 2026-04-30 21:54 | 46.42723 | 14.99417 | 40404 ft | 480 kts | 302° |
| 2026-04-30 21:54 | 46.46072 | 14.91021 | 40409 ft | 481 kts | 303° |
| 2026-04-30 21:55 | 46.49421 | 14.82602 | 40404 ft | 481 kts | 302° |
| 2026-04-30 21:55 | 46.52738 | 14.74233 | 40406 ft | 481 kts | 302° |
| 2026-04-30 21:56 | 46.56047 | 14.65776 | 40411 ft | 482 kts | 302° |
| 2026-04-30 21:56 | 46.59358 | 14.57285 | 40405 ft | 481 kts | 302° |
| 2026-04-30 21:57 | 46.62640 | 14.48794 | 40404 ft | 481 kts | 302° |
| 2026-04-30 21:57 | 46.65902 | 14.40289 | 40400 ft | 481 kts | 302° |
| 2026-04-30 21:58 | 46.69161 | 14.31786 | 40398 ft | 481 kts | 302° |
| 2026-04-30 21:58 | 46.72416 | 14.23265 | 40402 ft | 481 kts | 302° |
| 2026-04-30 21:59 | 46.75646 | 14.14781 | 40401 ft | 481 kts | 302° |
| 2026-04-30 22:00 | 46.80512 | 14.01950 | 40398 ft | 481 kts | 302° |
| 2026-04-30 22:00 | 46.85370 | 13.89076 | 40386 ft | 482 kts | 302° |
| 2026-04-30 22:01 | 46.88579 | 13.80543 | 40385 ft | 482 kts | 302° |
| 2026-04-30 22:01 | 46.91811 | 13.71919 | 40385 ft | 483 kts | 302° |
| 2026-04-30 22:02 | 46.95034 | 13.63288 | 40378 ft | 483 kts | 302° |
| 2026-04-30 22:02 | 46.98247 | 13.54655 | 40378 ft | 482 kts | 302° |
| 2026-04-30 22:03 | 47.01430 | 13.46079 | 40363 ft | 482 kts | 302° |
| 2026-04-30 22:03 | 47.04612 | 13.37477 | 40341 ft | 480 kts | 302° |
| 2026-04-30 22:04 | 47.07800 | 13.28834 | 40352 ft | 482 kts | 302° |
| 2026-04-30 22:05 | 47.12586 | 13.15814 | 40351 ft | 485 kts | 302° |
| 2026-04-30 22:05 | 47.15783 | 13.07071 | 40369 ft | 486 kts | 302° |
| 2026-04-30 22:06 | 47.18956 | 12.98358 | 40370 ft | 485 kts | 302° |
| 2026-04-30 22:06 | 47.23202 | 12.86664 | 40357 ft | 484 kts | 302° |
| 2026-04-30 22:07 | 47.26354 | 12.77957 | 40344 ft | 484 kts | 302° |
| 2026-04-30 22:07 | 47.29515 | 12.69188 | 40359 ft | 484 kts | 302° |
| 2026-04-30 22:08 | 47.32666 | 12.60420 | 40350 ft | 483 kts | 302° |
| 2026-04-30 22:08 | 47.35807 | 12.51650 | 40366 ft | 483 kts | 302° |
| 2026-04-30 22:09 | 47.38921 | 12.42930 | 40368 ft | 483 kts | 302° |
| 2026-04-30 22:09 | 47.42039 | 12.34167 | 40373 ft | 482 kts | 302° |
| 2026-04-30 22:10 | 47.45157 | 12.25374 | 40377 ft | 482 kts | 302° |
| 2026-04-30 22:10 | 47.48259 | 12.16597 | 40379 ft | 481 kts | 302° |
| 2026-04-30 22:11 | 47.52612 | 12.03298 | 40376 ft | 484 kts | 296° |
| 2026-04-30 22:12 | 47.54647 | 11.93754 | 40373 ft | 489 kts | 288° |
| 2026-04-30 22:12 | 47.55989 | 11.83882 | 40369 ft | 489 kts | 286° |
| 2026-04-30 22:13 | 47.57317 | 11.73976 | 40366 ft | 489 kts | 286° |
| 2026-04-30 22:13 | 47.58616 | 11.64077 | 40361 ft | 488 kts | 286° |
| 2026-04-30 22:14 | 47.59895 | 11.54194 | 40353 ft | 488 kts | 285° |
| 2026-04-30 22:14 | 47.61163 | 11.44317 | 40343 ft | 488 kts | 285° |
| 2026-04-30 22:15 | 47.62424 | 11.34422 | 40349 ft | 488 kts | 285° |
| 2026-04-30 22:15 | 47.63674 | 11.24531 | 40347 ft | 488 kts | 285° |
| 2026-04-30 22:16 | 47.64837 | 11.15261 | 40321 ft | 485 kts | 285° |
| 2026-04-30 22:16 | 47.65447 | 11.10361 | 40083 ft | 479 kts | 285° |
| 2026-04-30 22:17 | 47.67259 | 10.95767 | 37978 ft | 483 kts | 285° |
| 2026-04-30 22:17 | 47.67863 | 10.90869 | 37087 ft | 486 kts | 285° |
| 2026-04-30 22:17 | 47.69083 | 10.80916 | 35280 ft | 493 kts | 285° |
| 2026-04-30 22:18 | 47.69695 | 10.75894 | 34417 ft | 495 kts | 285° |
| 2026-04-30 22:18 | 47.70895 | 10.65941 | 33062 ft | 487 kts | 285° |
| 2026-04-30 22:19 | 47.72076 | 10.56084 | 31815 ft | 479 kts | 285° |
| 2026-04-30 22:19 | 47.72654 | 10.51237 | 31194 ft | 475 kts | 285° |
| 2026-04-30 22:19 | 47.73788 | 10.41690 | 29934 ft | 468 kts | 285° |
| 2026-04-30 22:20 | 47.74313 | 10.36965 | 29347 ft | 464 kts | 281° |
| 2026-04-30 22:20 | 47.74408 | 10.27416 | 28135 ft | 459 kts | 271° |
| 2026-04-30 22:20 | 47.74287 | 10.22692 | 27546 ft | 454 kts | 272° |
| 2026-04-30 22:21 | 47.74185 | 10.18028 | 26982 ft | 449 kts | 272° |
| 2026-04-30 22:21 | 47.74085 | 10.13424 | 26419 ft | 445 kts | 272° |
| 2026-04-30 22:21 | 47.73982 | 10.08845 | 25835 ft | 441 kts | 271° |
| 2026-04-30 22:21 | 47.73877 | 10.04377 | 25272 ft | 436 kts | 271° |
| 2026-04-30 22:22 | 47.73767 | 9.99847 | 24732 ft | 432 kts | 271° |
| 2026-04-30 22:22 | 47.73658 | 9.95455 | 24179 ft | 428 kts | 271° |
| 2026-04-30 22:22 | 47.73548 | 9.91050 | 23599 ft | 424 kts | 271° |
| 2026-04-30 22:22 | 47.73438 | 9.86695 | 22965 ft | 420 kts | 271° |
| 2026-04-30 22:23 | 47.73327 | 9.82378 | 22352 ft | 416 kts | 271° |
| 2026-04-30 22:23 | 47.73215 | 9.78092 | 21778 ft | 412 kts | 271° |
| 2026-04-30 22:23 | 47.73103 | 9.73857 | 21179 ft | 409 kts | 271° |
| 2026-04-30 22:23 | 47.72991 | 9.69652 | 20603 ft | 405 kts | 271° |
| 2026-04-30 22:24 | 47.72878 | 9.65485 | 20044 ft | 402 kts | 271° |
| 2026-04-30 22:24 | 47.72763 | 9.61360 | 19473 ft | 399 kts | 270° |
| 2026-04-30 22:24 | 47.72649 | 9.57300 | 18929 ft | 396 kts | 270° |
| 2026-04-30 22:24 | 47.72531 | 9.53174 | 18352 ft | 393 kts | 270° |
| 2026-04-30 22:25 | 47.72415 | 9.49182 | 17776 ft | 388 kts | 270° |
| 2026-04-30 22:25 | 47.72183 | 9.45201 | 17165 ft | 388 kts | 260° |
| 2026-04-30 22:25 | 47.71287 | 9.41439 | 16611 ft | 387 kts | 243° |
| 2026-04-30 22:25 | 47.69768 | 9.38187 | 16053 ft | 384 kts | 230° |
| 2026-04-30 22:26 | 47.66386 | 9.32112 | 14973 ft | 376 kts | 231° |
| 2026-04-30 22:26 | 47.64741 | 9.29111 | 14457 ft | 373 kts | 231° |
| 2026-04-30 22:26 | 47.63134 | 9.26181 | 13918 ft | 369 kts | 231° |
| 2026-04-30 22:27 | 47.61524 | 9.23252 | 13388 ft | 365 kts | 231° |
| 2026-04-30 22:27 | 47.60035 | 9.20220 | 12818 ft | 360 kts | 241° |
| 2026-04-30 22:27 | 47.58553 | 9.13273 | 11703 ft | 352 kts | 262° |
| 2026-04-30 22:28 | 47.57712 | 9.06188 | 10714 ft | 342 kts | 262° |
| 2026-04-30 22:28 | 47.57546 | 9.02805 | 10589 ft | 327 kts | 271° |
| 2026-04-30 22:29 | 47.58277 | 8.93324 | 9926 ft | 298 kts | 278° |
| 2026-04-30 22:29 | 47.58524 | 8.90284 | 9493 ft | 297 kts | 278° |
| 2026-04-30 22:30 | 47.59685 | 8.78378 | 9268 ft | 294 kts | 283° |
| 2026-04-30 22:31 | 47.60930 | 8.69472 | 8405 ft | 293 kts | 282° |
| 2026-04-30 22:32 | 47.62142 | 8.60679 | 7239 ft | 289 kts | 282° |
| 2026-04-30 22:32 | 47.62913 | 8.55065 | 7030 ft | 267 kts | 282° |
| 2026-04-30 22:33 | 47.63963 | 8.47370 | 6700 ft | 244 kts | 282° |
| 2026-04-30 22:33 | 47.64638 | 8.42422 | 6161 ft | 244 kts | 282° |
| 2026-04-30 22:34 | 47.63101 | 8.36015 | 5352 ft | 234 kts | 200° |
| 2026-04-30 22:35 | 47.60311 | 8.36756 | 4938 ft | 205 kts | 133° |
| 2026-04-30 22:36 | 47.56738 | 8.41905 | 3861 ft | 144 kts | 130° |
| 2026-04-30 22:36 | 47.56025 | 8.42885 | 3669 ft | 138 kts | 130° |
| 2026-04-30 22:37 | 47.53934 | 8.45764 | 3127 ft | 135 kts | 129° |
| 2026-04-30 22:37 | 47.53237 | 8.46720 | 2939 ft | 136 kts | 129° |
| 2026-04-30 22:37 | 47.51839 | 8.48642 | 2539 ft | 141 kts | 130° |
| 2026-04-30 22:38 | 47.50390 | 8.50648 | 2091 ft | 146 kts | 134° |
| 2026-04-30 22:38 | 47.48803 | 8.52846 | 1686 ft | 162 kts | 139° |
| 2026-04-30 22:39 | 47.47966 | 8.53937 | 1459 ft | 155 kts | 139° |
| 2026-04-30 22:39 | 47.46640 | 8.55662 | 1406 ft | 24 kts | 163° |
| 2026-04-30 22:40 | 47.46580 | 8.55684 | 1411 ft | 0 kts | 167° |
| 2026-04-30 22:41 | 47.46319 | 8.55769 | 1409 ft | 17 kts | 167° |
| 2026-04-30 22:41 | 47.46222 | 8.55957 | 1411 ft | 15 kts | 108° |
| 2026-04-30 22:42 | 47.45944 | 8.55742 | 1403 ft | 17 kts | 277° |
| 2026-04-30 22:43 | 47.46026 | 8.55624 | 1407 ft | 7 kts | 358° |
| 2026-04-30 22:43 | 47.46037 | 8.55624 | 1407 ft | 0 kts | 4° |